createdAt,value
2022-10-11T00:00:46.366Z,98457.26
2022-10-11T00:03:31.720Z,98451.31
2022-10-11T00:05:59.941Z,98445.41
2022-10-11T00:08:27.914Z,98445.15
2022-10-11T00:10:58.139Z,98440.75
2022-10-11T00:13:27.116Z,98439.25
2022-10-11T00:15:55.140Z,98439.98
2022-10-11T00:18:23.819Z,98439.58
2022-10-11T00:21:04.832Z,98441.23
2022-10-11T00:23:33.336Z,98447.60
2022-10-11T00:26:04.129Z,98448.40
2022-10-11T00:28:33.134Z,98448.13
2022-10-11T00:31:01.487Z,98446.27
2022-10-11T00:33:29.508Z,98443.33
2022-10-11T00:36:00.252Z,98444.29
2022-10-11T00:38:31.598Z,98438.84
2022-10-11T00:41:00.689Z,98439.05
2022-10-11T00:43:30.867Z,98440.13
2022-10-11T00:46:00.504Z,98436.16
2022-10-11T00:48:50.899Z,98436.77
2022-10-11T00:51:26.174Z,98438.12
2022-10-11T00:53:54.215Z,98439.52
2022-10-11T00:56:31.464Z,98439.94
2022-10-11T00:59:02.687Z,98438.77
2022-10-11T01:01:31.153Z,98432.94
2022-10-11T01:03:59.289Z,98431.48
2022-10-11T01:06:27.587Z,98431.55
2022-10-11T01:08:56.484Z,98429.39
2022-10-11T01:11:27.624Z,98427.27
2022-10-11T01:14:25.088Z,98420.94
2022-10-11T01:17:26.441Z,98416.20
2022-10-11T01:20:03.006Z,98415.77
2022-10-11T01:22:51.151Z,98414.17
2022-10-11T01:25:53.187Z,98414.11
2022-10-11T01:28:42.721Z,98413.21
2022-10-11T01:31:45.683Z,98410.14
2022-10-11T01:34:31.881Z,98412.35
2022-10-11T01:37:11.318Z,98409.65
2022-10-11T01:39:46.454Z,98411.88
2022-10-11T01:42:16.164Z,98408.17
2022-10-11T01:44:47.820Z,98409.55
2022-10-11T01:47:23.566Z,98407.92
2022-10-11T01:50:00.408Z,98404.99
2022-10-11T01:52:32.363Z,98402.77
2022-10-11T01:55:24.346Z,98402.94
2022-10-11T01:57:52.185Z,98402.75
2022-10-11T02:00:23.706Z,98401.89
2022-10-11T02:02:57.367Z,98398.05
2022-10-11T02:06:10.088Z,98397.36
2022-10-11T02:09:12.466Z,98398.97
2022-10-11T02:11:42.186Z,98398.77
2022-10-11T02:14:23.356Z,98395.89
2022-10-11T02:17:04.228Z,98392.83
2022-10-11T02:19:38.755Z,98393.14
2022-10-11T02:22:13.370Z,98395.85
2022-10-11T02:24:45.646Z,98399.08
2022-10-11T02:27:15.596Z,98396.59
2022-10-11T02:29:45.778Z,98395.02
2022-10-11T02:32:15.826Z,98394.46
2022-10-11T02:34:50.795Z,98391.96
2022-10-11T02:37:37.446Z,98392.42
2022-10-11T02:40:25.793Z,98391.14
2022-10-11T02:43:09.016Z,98393.14
2022-10-11T02:45:44.866Z,98394.43
2022-10-11T02:48:12.926Z,98393.37
2022-10-11T02:50:42.227Z,98395.20
2022-10-11T02:53:10.317Z,98394.94
2022-10-11T02:55:38.282Z,98397.58
2022-10-11T02:58:06.142Z,98399.75
2022-10-11T03:00:34.101Z,98399.52
2022-10-11T03:03:02.058Z,98402.23
2022-10-11T03:05:29.953Z,98400.94
2022-10-11T03:07:57.920Z,98399.09
2022-10-11T03:10:25.767Z,98398.11
2022-10-11T03:12:53.765Z,98400.77
2022-10-11T03:15:21.729Z,98401.06
2022-10-11T03:17:49.698Z,98405.59
2022-10-11T03:20:17.664Z,98400.02
2022-10-11T03:22:45.642Z,98396.73
2022-10-11T03:25:13.612Z,98397.25
2022-10-11T03:27:41.783Z,98394.61
2022-10-11T03:30:13.335Z,98389.36
2022-10-11T03:32:44.682Z,98391.99
2022-10-11T03:35:12.755Z,98389.48
2022-10-11T03:37:40.829Z,98391.00
2022-10-11T03:40:09.821Z,98389.03
2022-10-11T03:42:38.729Z,98385.46
2022-10-11T03:45:09.050Z,98387.52
2022-10-11T03:47:39.059Z,98385.89
2022-10-11T03:50:08.838Z,98389.15
2022-10-11T03:52:36.761Z,98393.46
2022-10-11T03:55:05.676Z,98389.40
2022-10-11T03:57:33.722Z,98394.79
2022-10-11T04:00:01.880Z,98393.94
2022-10-11T04:02:29.842Z,98394.96
2022-10-11T04:04:57.811Z,98394.66
2022-10-11T04:07:25.754Z,98390.04
2022-10-11T04:09:54.055Z,98387.48
2022-10-11T04:12:22.023Z,98391.57
2022-10-11T04:14:49.990Z,98391.52
2022-10-11T04:17:18.273Z,98394.09
2022-10-11T04:19:46.444Z,98395.14
2022-10-11T04:22:14.307Z,98391.95
2022-10-11T04:24:42.283Z,98389.57
2022-10-11T04:27:10.559Z,98387.64
2022-10-11T04:29:38.470Z,98387.58
2022-10-11T04:32:06.631Z,98386.13
2022-10-11T04:34:34.571Z,98384.55
2022-10-11T04:37:02.542Z,98393.84
2022-10-11T04:39:30.447Z,98395.20
2022-10-11T04:41:58.582Z,98395.11
2022-10-11T04:44:26.859Z,98397.05
2022-10-11T04:46:54.764Z,98400.77
2022-10-11T04:49:22.894Z,98399.30
2022-10-11T04:51:51.046Z,98399.75
2022-10-11T04:54:19.039Z,98404.52
2022-10-11T04:56:47.011Z,98404.67
2022-10-11T04:59:15.181Z,98409.11
2022-10-11T05:01:43.219Z,98409.62
2022-10-11T05:04:11.119Z,98411.13
2022-10-11T05:06:39.377Z,98407.64
2022-10-11T05:09:07.397Z,98412.94
2022-10-11T05:11:35.654Z,98419.04
2022-10-11T05:14:03.830Z,98418.70
2022-10-11T05:16:31.895Z,98414.23
2022-10-11T05:18:59.858Z,98416.30
2022-10-11T05:21:29.568Z,98419.06
2022-10-11T05:23:58.363Z,98421.71
2022-10-11T05:26:28.220Z,98421.45
2022-10-11T05:28:56.696Z,98419.96
2022-10-11T05:31:24.934Z,98421.81
2022-10-11T05:33:52.885Z,98427.27
2022-10-11T05:36:21.090Z,98427.65
2022-10-11T05:38:49.042Z,98431.09
2022-10-11T05:41:17.113Z,98434.83
2022-10-11T05:43:46.015Z,98433.89
2022-10-11T05:46:14.495Z,98434.62
2022-10-11T05:48:42.453Z,98433.67
2022-10-11T05:51:12.092Z,98438.68
2022-10-11T05:53:40.131Z,98440.01
2022-10-11T05:56:22.336Z,98439.88
2022-10-11T05:58:51.086Z,98443.26
2022-10-11T06:01:24.995Z,98442.47
2022-10-11T06:03:53.393Z,98435.58
2022-10-11T06:06:22.100Z,98436.14
2022-10-11T06:08:50.586Z,98436.36
2022-10-11T06:11:22.128Z,98432.64
2022-10-11T06:13:50.315Z,98426.34
2022-10-11T06:16:18.169Z,98426.80
2022-10-11T06:18:46.251Z,98431.94
2022-10-11T06:21:15.653Z,98436.38
2022-10-11T06:23:44.643Z,98438.17
2022-10-11T06:26:12.625Z,98446.05
2022-10-11T06:28:40.576Z,98447.34
2022-10-11T06:31:09.370Z,98450.13
2022-10-11T06:33:37.868Z,98452.59
2022-10-11T06:36:09.859Z,98450.29
2022-10-11T06:38:43.835Z,98447.27
2022-10-11T06:41:14.327Z,98449.52
2022-10-11T06:43:42.276Z,98450.86
2022-10-11T06:46:11.223Z,98445.67
2022-10-11T06:48:41.690Z,98446.59
2022-10-11T06:51:14.832Z,98447.66
2022-10-11T06:53:43.420Z,98450.53
2022-10-11T06:56:13.151Z,98453.30
2022-10-11T06:58:41.101Z,98454.08
2022-10-11T07:01:11.648Z,98452.48
2022-10-11T07:03:39.865Z,98453.90
2022-10-11T07:06:13.558Z,98452.98
2022-10-11T07:08:42.102Z,98453.08
2022-10-11T07:11:29.824Z,98454.42
2022-10-11T07:14:00.562Z,98451.19
2022-10-11T07:16:29.349Z,98449.74
2022-10-11T07:19:00.935Z,98450.06
2022-10-11T07:21:31.460Z,98450.85
2022-10-11T07:24:00.181Z,98447.14
2022-10-11T07:26:32.503Z,98447.22
2022-10-11T07:29:04.955Z,98445.78
2022-10-11T07:31:33.347Z,98449.06
2022-10-11T07:34:01.327Z,98449.33
2022-10-11T07:36:29.265Z,98447.81
2022-10-11T07:38:57.134Z,98446.52
2022-10-11T07:41:25.043Z,98444.94
2022-10-11T07:43:54.826Z,98445.23
2022-10-11T07:46:23.000Z,98442.29
2022-10-11T07:48:50.969Z,98439.85
2022-10-11T07:51:22.122Z,98438.14
2022-10-11T07:53:52.717Z,98443.59
2022-10-11T07:56:23.893Z,98442.45
2022-10-11T07:58:57.475Z,98439.98
2022-10-11T08:01:27.234Z,98436.45
2022-10-11T08:03:56.972Z,98438.16
2022-10-11T08:06:29.442Z,98442.96
2022-10-11T08:08:57.567Z,98444.89
2022-10-11T08:11:27.373Z,98436.89
2022-10-11T08:13:55.962Z,98439.95
2022-10-11T08:16:25.272Z,98438.88
2022-10-11T08:18:55.481Z,98441.76
2022-10-11T08:21:23.454Z,98440.73
2022-10-11T08:23:51.426Z,98440.05
2022-10-11T08:26:19.387Z,98439.13
2022-10-11T08:28:47.455Z,98441.54
2022-10-11T08:31:16.615Z,98440.64
2022-10-11T08:33:44.940Z,98440.84
2022-10-11T08:36:13.609Z,98439.82
2022-10-11T08:38:42.242Z,98439.20
2022-10-11T08:41:26.870Z,98442.36
2022-10-11T08:43:58.112Z,98440.91
2022-10-11T08:46:30.992Z,98444.02
2022-10-11T08:49:00.706Z,98433.92
2022-10-11T08:51:36.051Z,98434.39
2022-10-11T08:54:12.690Z,98433.87
2022-10-11T08:56:41.916Z,98432.47
2022-10-11T08:59:12.967Z,98428.48
2022-10-11T09:02:03.459Z,98429.60
2022-10-11T09:04:32.555Z,98424.45
2022-10-11T09:07:16.035Z,98420.20
2022-10-11T09:09:56.143Z,98421.71
2022-10-11T09:12:41.988Z,98420.81
2022-10-11T09:15:15.884Z,98422.90
2022-10-11T09:18:09.822Z,98419.67
2022-10-11T09:21:08.443Z,98418.30
2022-10-11T09:24:02.594Z,98415.79
2022-10-11T09:26:52.488Z,98416.13
2022-10-11T09:29:42.577Z,98414.39
2022-10-11T09:32:17.397Z,98413.75
2022-10-11T09:34:45.871Z,98408.55
2022-10-11T09:37:30.742Z,98408.73
2022-10-11T09:40:17.143Z,98412.90
2022-10-11T09:42:45.019Z,98411.89
2022-10-11T09:45:19.169Z,98411.02
2022-10-11T09:47:49.430Z,98412.02
2022-10-11T09:50:25.784Z,98411.63
2022-10-11T09:52:56.290Z,98410.35
2022-10-11T09:55:52.957Z,98409.46
2022-10-11T09:58:23.823Z,98405.80
2022-10-11T10:01:05.122Z,98405.88
2022-10-11T10:03:44.638Z,98400.01
2022-10-11T10:06:28.584Z,98397.16
2022-10-11T10:09:21.240Z,98400.42
2022-10-11T10:11:49.720Z,98400.38
2022-10-11T10:14:27.964Z,98401.83
2022-10-11T10:17:06.036Z,98400.95
2022-10-11T10:19:44.734Z,98399.59
2022-10-11T10:22:34.618Z,98394.89
2022-10-11T10:25:08.152Z,98395.67
2022-10-11T10:27:36.023Z,98394.60
2022-10-11T10:30:13.394Z,98395.40
2022-10-11T10:32:50.480Z,98393.30
2022-10-11T10:35:39.082Z,98393.23
2022-10-11T10:38:16.519Z,98384.88
2022-10-11T10:40:49.810Z,98383.39
2022-10-11T10:43:24.957Z,98384.70
2022-10-11T10:46:11.561Z,98383.45
2022-10-11T10:52:06.001Z,98379.00
2022-10-11T10:54:56.607Z,98378.77
2022-10-11T10:57:38.471Z,98383.09
2022-10-11T11:00:23.691Z,98379.41
2022-10-11T11:03:10.179Z,98383.11
2022-10-11T11:05:56.175Z,98382.40
2022-10-11T11:08:53.951Z,98379.10
2022-10-11T11:11:41.715Z,98378.81
2022-10-11T11:14:38.310Z,98377.08
2022-10-11T11:17:25.092Z,98377.09
2022-10-11T11:20:20.434Z,98374.90
2022-10-11T11:23:06.795Z,98373.46
2022-10-11T11:25:49.542Z,98372.33
2022-10-11T11:28:39.131Z,98370.29
2022-10-11T11:31:25.426Z,98371.24
2022-10-11T11:33:59.372Z,98371.57
2022-10-11T11:36:46.321Z,98370.81
2022-10-11T11:39:29.204Z,98365.83
2022-10-11T11:42:36.570Z,98366.20
2022-10-11T11:45:17.741Z,98365.98
2022-10-11T11:47:54.796Z,98362.65
2022-10-11T11:50:27.334Z,98358.04
2022-10-11T11:53:05.146Z,98353.94
2022-10-11T11:55:42.392Z,98353.06
2022-10-11T11:58:27.924Z,98350.36
2022-10-11T12:01:05.433Z,98351.92
2022-10-11T12:03:41.720Z,98347.91
2022-10-11T12:06:26.377Z,98347.52
2022-10-11T12:09:06.235Z,98345.21
2022-10-11T12:11:36.973Z,98343.69
2022-10-11T12:14:38.738Z,98340.86
2022-10-11T12:17:18.297Z,98340.71
2022-10-11T12:20:01.811Z,98340.17
2022-10-11T12:22:29.787Z,98335.34
2022-10-11T12:25:22.219Z,98332.07
2022-10-11T12:27:56.648Z,98327.71
2022-10-11T12:30:42.836Z,98324.51
2022-10-11T12:33:24.696Z,98317.72
2022-10-11T12:35:55.671Z,98318.55
2022-10-11T12:38:29.578Z,98315.73
2022-10-11T12:41:00.734Z,98317.48
2022-10-11T12:43:36.320Z,98314.53
2022-10-11T12:46:31.284Z,98313.73
2022-10-11T12:49:06.827Z,98313.93
2022-10-11T12:52:01.174Z,98307.34
2022-10-11T12:54:47.930Z,98309.02
2022-10-11T12:57:46.291Z,98307.65
2022-10-11T13:00:20.749Z,98305.98
2022-10-11T13:02:49.613Z,98303.15
2022-10-11T13:05:45.079Z,98304.14
2022-10-11T13:08:19.147Z,98302.54
2022-10-11T13:10:48.240Z,98296.23
2022-10-11T13:13:22.964Z,98296.73
2022-10-11T13:15:54.417Z,98297.51
2022-10-11T13:18:25.836Z,98298.55
2022-10-11T13:20:54.858Z,98297.95
2022-10-11T13:23:35.196Z,98295.80
2022-10-11T13:26:03.376Z,98294.23
2022-10-11T13:28:36.308Z,98289.40
2022-10-11T13:31:06.009Z,98286.69
2022-10-11T13:33:39.769Z,98291.13
2022-10-11T13:36:15.164Z,98291.95
2022-10-11T13:38:52.827Z,98290.91
2022-10-11T13:41:22.031Z,98289.14
2022-10-11T13:43:50.614Z,98284.98
2022-10-11T13:46:23.050Z,98282.98
2022-10-11T13:49:20.238Z,98279.97
2022-10-11T13:51:58.520Z,98274.84
2022-10-11T13:55:04.520Z,98272.33
2022-10-11T13:57:41.538Z,98266.91
2022-10-11T14:00:15.310Z,98265.79
2022-10-11T14:02:52.183Z,98268.02
2022-10-11T14:05:30.630Z,98269.38
2022-10-11T14:08:22.225Z,98270.11
2022-10-11T14:10:56.390Z,98266.98
2022-10-11T14:13:31.249Z,98266.31
2022-10-11T14:16:13.270Z,98264.75
2022-10-11T14:18:50.247Z,98264.86
2022-10-11T14:21:25.995Z,98266.31
2022-10-11T14:23:57.081Z,98271.08
2022-10-11T14:26:26.933Z,98274.42
2022-10-11T14:29:00.733Z,98271.86
2022-10-11T14:31:30.970Z,98270.77
2022-10-11T14:33:59.527Z,98267.10
2022-10-11T14:36:27.637Z,98268.23
2022-10-11T14:38:55.612Z,98269.78
2022-10-11T14:41:23.889Z,98267.98
2022-10-11T14:43:51.960Z,98270.89
2022-10-11T14:46:23.507Z,98273.94
2022-10-11T14:48:56.598Z,98274.04
2022-10-11T14:51:30.387Z,98275.73
2022-10-11T14:53:59.230Z,98275.77
2022-10-11T14:56:27.268Z,98277.36
2022-10-11T14:58:55.234Z,98278.94
2022-10-11T15:01:23.772Z,98277.55
2022-10-11T15:03:51.893Z,98285.77
2022-10-11T15:06:23.243Z,98282.77
2022-10-11T15:08:51.503Z,98280.61
2022-10-11T15:11:22.126Z,98283.95
2022-10-11T15:13:50.833Z,98284.69
2022-10-11T15:16:20.956Z,98284.71
2022-10-11T15:18:52.051Z,98288.27
2022-10-11T15:21:26.368Z,98291.40
2022-10-11T15:23:56.022Z,98293.30
2022-10-11T15:26:29.387Z,98292.84
2022-10-11T15:28:57.620Z,98288.70
2022-10-11T15:31:25.881Z,98291.64
2022-10-11T15:33:54.105Z,98293.30
2022-10-11T15:36:22.760Z,98295.66
2022-10-11T15:38:50.705Z,98298.88
2022-10-11T15:41:20.316Z,98298.88
2022-10-11T15:43:49.569Z,98303.20
2022-10-11T15:46:22.508Z,98308.13
2022-10-11T15:48:52.094Z,98311.80
2022-10-11T15:51:20.072Z,98311.27
2022-10-11T15:53:48.041Z,98315.36
2022-10-11T15:56:18.981Z,98317.42
2022-10-11T15:58:46.954Z,98322.39
2022-10-11T16:01:19.470Z,98321.61
2022-10-11T16:03:49.953Z,98323.10
2022-10-11T16:06:18.903Z,98327.60
2022-10-11T16:08:47.910Z,98326.77
2022-10-11T16:11:16.015Z,98326.02
2022-10-11T16:13:45.311Z,98325.56
2022-10-11T16:16:13.279Z,98328.06
2022-10-11T16:18:41.188Z,98329.39
2022-10-11T16:21:11.985Z,98330.77
2022-10-11T16:23:40.114Z,98335.20
2022-10-11T16:26:12.127Z,98337.55
2022-10-11T16:28:40.311Z,98342.30
2022-10-11T16:31:16.835Z,98343.14
2022-10-11T16:33:46.283Z,98348.46
2022-10-11T16:36:36.905Z,98352.87
2022-10-11T16:39:18.152Z,98356.55
2022-10-11T16:41:47.561Z,98356.96
2022-10-11T16:44:21.187Z,98359.64
2022-10-11T16:46:49.253Z,98360.56
2022-10-11T16:49:23.225Z,98361.45
2022-10-11T16:51:53.262Z,98364.87
2022-10-11T16:54:22.050Z,98363.70
2022-10-11T16:56:50.529Z,98365.63
2022-10-11T16:59:18.702Z,98361.52
2022-10-11T17:01:46.879Z,98363.77
2022-10-11T17:04:15.354Z,98362.54
2022-10-11T17:06:44.147Z,98362.53
2022-10-11T17:09:12.999Z,98362.77
2022-10-11T17:11:41.113Z,98361.89
2022-10-11T17:14:10.679Z,98361.11
2022-10-11T17:16:39.713Z,98361.76
2022-10-11T17:19:15.989Z,98361.90
2022-10-11T17:21:43.839Z,98364.54
2022-10-11T17:24:11.815Z,98364.47
2022-10-11T17:26:39.981Z,98368.26
2022-10-11T17:29:07.954Z,98369.18
2022-10-11T17:31:38.588Z,98370.33
2022-10-11T17:34:06.659Z,98370.61
2022-10-11T17:36:34.734Z,98370.66
2022-10-11T17:39:09.674Z,98372.03
2022-10-11T17:41:38.351Z,98376.42
2022-10-11T17:44:06.834Z,98379.10
2022-10-11T17:46:35.011Z,98378.10
2022-10-11T17:49:06.187Z,98380.70
2022-10-11T17:51:36.148Z,98379.02
2022-10-11T17:54:04.886Z,98379.14
2022-10-11T17:56:37.655Z,98381.81
2022-10-11T17:59:07.956Z,98382.51
2022-10-11T18:01:36.393Z,98383.83
2022-10-11T18:04:06.307Z,98381.55
2022-10-11T18:06:39.669Z,98380.55
2022-10-11T18:09:08.341Z,98377.52
2022-10-11T18:11:36.424Z,98382.31
2022-10-11T18:14:05.314Z,98385.65
2022-10-11T18:16:34.640Z,98389.05
2022-10-11T18:19:05.031Z,98387.30
2022-10-11T18:21:34.866Z,98385.27
2022-10-11T18:24:05.476Z,98384.02
2022-10-11T18:26:34.509Z,98381.56
2022-10-11T18:29:02.951Z,98381.91
2022-10-11T18:31:33.910Z,98379.63
2022-10-11T18:34:03.207Z,98385.23
2022-10-11T18:36:31.975Z,98385.11
2022-10-11T18:39:05.762Z,98387.01
2022-10-11T18:41:35.492Z,98387.23
2022-10-11T18:44:07.003Z,98383.82
2022-10-11T18:46:35.845Z,98384.88
2022-10-11T18:49:04.413Z,98387.34
2022-10-11T18:51:38.323Z,98386.91
2022-10-11T18:54:07.798Z,98386.59
2022-10-11T18:56:37.226Z,98385.16
2022-10-11T18:59:06.752Z,98387.13
2022-10-11T19:01:38.348Z,98386.97
2022-10-11T19:04:10.751Z,98387.67
2022-10-11T19:06:43.150Z,98385.75
2022-10-11T19:09:14.246Z,98386.36
2022-10-11T19:11:42.263Z,98387.92
2022-10-11T19:14:14.641Z,98393.16
2022-10-11T19:16:51.487Z,98392.90
2022-10-11T19:19:21.787Z,98392.29
2022-10-11T19:21:50.617Z,98390.45
2022-10-11T19:24:21.246Z,98393.80
2022-10-11T19:26:49.828Z,98395.59
2022-10-11T19:29:20.109Z,98394.17
2022-10-11T19:31:59.497Z,98394.48
2022-10-11T19:34:28.792Z,98399.59
2022-10-11T19:36:57.327Z,98398.92
2022-10-11T19:39:25.757Z,98393.66
2022-10-11T19:41:54.030Z,98391.81
2022-10-11T19:44:22.004Z,98392.80
2022-10-11T19:46:52.280Z,98396.20
2022-10-11T19:49:24.928Z,98402.94
2022-10-11T19:51:55.421Z,98406.56
2022-10-11T19:54:24.334Z,98407.14
2022-10-11T19:56:52.828Z,98407.64
2022-10-11T19:59:20.886Z,98405.28
2022-10-11T20:01:52.739Z,98410.02
2022-10-11T20:07:10.268Z,98406.80
2022-10-11T20:09:38.260Z,98407.83
2022-10-11T20:12:06.731Z,98404.78
2022-10-11T20:14:34.907Z,98405.95
2022-10-11T20:17:03.078Z,98407.42
2022-10-11T20:19:31.730Z,98407.74
2022-10-11T20:22:00.929Z,98410.34
2022-10-11T20:24:33.583Z,98412.40
2022-10-11T20:27:04.646Z,98411.86
2022-10-11T20:29:32.964Z,98411.61
2022-10-11T20:32:00.943Z,98415.23
2022-10-11T20:34:29.028Z,98414.89
2022-10-11T20:36:57.288Z,98414.30
2022-10-11T20:39:25.464Z,98414.34
2022-10-11T20:41:53.601Z,98415.08
2022-10-11T20:44:21.523Z,98417.23
2022-10-11T20:46:49.576Z,98420.73
2022-10-11T20:49:20.031Z,98420.54
2022-10-11T20:51:48.786Z,98421.02
2022-10-11T20:54:16.862Z,98420.48
2022-10-11T20:56:44.829Z,98421.45
2022-10-11T20:59:12.801Z,98423.40
2022-10-11T21:01:41.651Z,98421.05
2022-10-11T21:04:18.076Z,98424.30
2022-10-11T21:06:46.541Z,98424.65
2022-10-11T21:09:16.658Z,98426.05
2022-10-11T21:11:45.447Z,98428.52
2022-10-11T21:14:14.137Z,98428.03
2022-10-11T21:16:42.205Z,98426.73
2022-10-11T21:19:14.191Z,98430.12
2022-10-11T21:21:43.272Z,98429.92
2022-10-11T21:24:11.150Z,98431.78
2022-10-11T21:26:38.993Z,98430.84
2022-10-11T21:29:07.676Z,98427.85
2022-10-11T21:31:35.726Z,98425.58
2022-10-11T21:34:05.274Z,98429.88
2022-10-11T21:36:33.840Z,98430.19
2022-10-11T21:39:01.915Z,98433.06
2022-10-11T21:41:34.183Z,98431.10
2022-10-11T21:44:02.158Z,98431.02
2022-10-11T21:47:01.120Z,98431.19
2022-10-11T21:49:20.312Z,98429.10
2022-10-11T21:51:48.494Z,98430.29
2022-10-11T21:54:17.068Z,98426.66
2022-10-11T21:56:45.085Z,98426.81
2022-10-11T21:59:12.992Z,98426.52
2022-10-11T22:01:41.951Z,98435.77
2022-10-11T22:04:12.127Z,98439.52
2022-10-11T22:06:40.498Z,98441.39
2022-10-11T22:09:09.396Z,98443.12
2022-10-11T22:11:37.877Z,98443.60
2022-10-11T22:14:06.222Z,98442.84
2022-10-11T22:16:35.556Z,98443.33
2022-10-11T22:19:04.447Z,98442.33
2022-10-11T22:21:32.617Z,98441.42
2022-10-11T22:24:00.590Z,98438.06
2022-10-11T22:26:31.546Z,98439.21
2022-10-11T22:29:00.553Z,98436.75
2022-10-11T22:31:30.029Z,98435.20
2022-10-11T22:34:00.242Z,98436.52
2022-10-11T22:36:33.641Z,98436.16
2022-10-11T22:39:02.942Z,98429.36
2022-10-11T22:41:30.789Z,98432.33
2022-10-11T22:43:58.676Z,98432.72
2022-10-11T22:46:26.645Z,98435.02
2022-10-11T22:48:54.555Z,98439.30
2022-10-11T22:51:22.455Z,98441.17
2022-10-11T22:53:50.456Z,98443.15
2022-10-11T22:56:18.419Z,98442.73
2022-10-11T22:58:46.492Z,98440.64
2022-10-11T23:01:16.382Z,98444.96
2022-10-11T23:03:49.460Z,98441.31
2022-10-11T23:06:18.188Z,98443.10
2022-10-11T23:08:46.155Z,98446.96
2022-10-11T23:11:14.122Z,98446.14
2022-10-11T23:13:42.091Z,98446.83
2022-10-11T23:16:12.217Z,98445.08
2022-10-11T23:18:40.136Z,98447.60
2022-10-11T23:21:08.624Z,98448.38
2022-10-11T23:23:39.632Z,98448.72
2022-10-11T23:26:11.681Z,98454.55
2022-10-11T23:28:40.039Z,98454.60
2022-10-11T23:31:13.731Z,98454.30
2022-10-11T23:33:41.692Z,98454.60
2022-10-11T23:36:17.622Z,98456.62
2022-10-11T23:38:45.718Z,98454.56
2022-10-11T23:41:13.616Z,98452.45
2022-10-11T23:43:41.810Z,98454.21
2022-10-11T23:46:09.775Z,98452.44
2022-10-11T23:48:37.627Z,98448.19
2022-10-11T23:51:06.311Z,98449.67
2022-10-11T23:53:34.808Z,98446.21
2022-10-11T23:56:03.990Z,98448.80
2022-10-11T23:58:32.677Z,98451.19
